Time;durP1;ratioP1;P1;durP2;ratioP2;P2;SDS_P1;SDS_P2;PMS_P1;PMS_P2;Temp;Humidity;BMP_temperature;BMP_pressure;BME280_temperature;BME280_humidity;BME280_pressure;Samples;Min_cycle;Max_cycle;Signal;HPM_P1;HPM_P2
2022/04/01 00:02:34;;;;;;;4.65;2.80;;;;;;;;;;5547191;22;20027;-92
2022/04/01 00:05:14;;;;;;;3.17;2.08;;;;;;;;;;5201662;22;20044;-92
2022/04/01 00:15:55;;;;;;;3.83;2.38;;;;;;;;;;5276300;22;20040;-93
2022/04/01 00:18:24;;;;;;;3.90;2.38;;;;;;;;;;5044518;28;20037;-92
2022/04/01 00:37:03;;;;;;;4.25;2.67;;;;;;;;;;4980387;28;20050;-93
2022/04/01 00:39:35;;;;;;;4.05;2.83;;;;;;;;;;5011696;23;20054;-91
2022/04/01 00:42:07;;;;;;;5.57;3.25;;;;;;;;;;5073332;23;20045;-91
2022/04/01 00:44:53;;;;;;;4.70;2.92;;;;;;;;;;5031511;28;20124;-96
2022/04/01 00:51:08;;;;;;;5.05;2.88;;;;;;;;;;5007357;28;20126;-91
2022/04/01 00:53:34;;;;;;;6.05;3.08;;;;;;;;;;5025765;28;20032;-92
2022/04/01 01:02:08;;;;;;;5.10;3.08;;;;;;;;;;5108414;22;20064;-93
2022/04/01 01:07:25;;;;;;;4.18;2.60;;;;;;;;;;5107146;22;20076;-92
2022/04/01 01:12:27;;;;;;;5.25;2.15;;;;;;;;;;5011981;28;20077;-91
2022/04/01 01:14:53;;;;;;;3.45;2.15;;;;;;;;;;4991181;28;20108;-91
2022/04/01 01:21:38;;;;;;;4.75;3.00;;;;;;;;;;4893014;29;20081;-93
2022/04/01 01:24:16;;;;;;;4.97;2.80;;;;;;;;;;4853177;29;20038;-93
2022/04/01 01:29:42;;;;;;;5.35;2.95;;;;;;;;;;5088136;28;20100;-93
2022/04/01 01:32:22;;;;;;;4.22;2.92;;;;;;;;;;5065987;28;20037;-94
2022/04/01 01:34:52;;;;;;;4.97;2.75;;;;;;;;;;5062781;28;20502;-93
2022/04/01 01:40:24;;;;;;;6.10;2.90;;;;;;;;;;5065497;28;20136;-95
2022/04/01 01:43:10;;;;;;;5.25;3.45;;;;;;;;;;5045676;28;20037;-93
2022/04/01 01:45:42;;;;;;;7.35;4.60;;;;;;;;;;5023848;28;20042;-94
2022/04/01 02:03:33;;;;;;;12.43;8.30;;;;;;;;;;5021602;28;20050;-92
2022/04/01 02:15:10;;;;;;;12.45;8.13;;;;;;;;;;4588040;23;21439;-91
2022/04/01 02:17:44;;;;;;;13.32;8.63;;;;;;;;;;4984473;28;20050;-94
2022/04/01 02:20:25;;;;;;;14.20;8.13;;;;;;;;;;4988228;28;20030;-94
2022/04/01 02:22:54;;;;;;;11.73;7.72;;;;;;;;;;4987669;28;20022;-96
2022/04/01 02:31:14;;;;;;;11.63;7.00;;;;;;;;;;5020185;28;20050;-94
2022/04/01 02:36:50;;;;;;;13.80;8.00;;;;;;;;;;5312138;23;20025;-93
2022/04/01 02:39:23;;;;;;;13.73;8.73;;;;;;;;;;5028007;28;20052;-92
2022/04/01 02:44:49;;;;;;;13.15;8.70;;;;;;;;;;5040846;28;20071;-93
2022/04/01 02:47:37;;;;;;;13.52;8.98;;;;;;;;;;5026507;28;20021;-92
2022/04/01 02:50:10;;;;;;;15.52;9.02;;;;;;;;;;5027302;28;20159;-93
2022/04/01 02:52:45;;;;;;;14.57;9.83;;;;;;;;;;5004317;28;20025;-91
2022/04/01 03:18:13;;;;;;;15.93;10.25;;;;;;;;;;5364562;23;19921;-94
2022/04/01 03:20:50;;;;;;;16.40;9.70;;;;;;;;;;5124919;23;20053;-94
2022/04/01 03:23:23;;;;;;;15.57;8.48;;;;;;;;;;5086386;23;20419;-95
2022/04/01 03:26:03;;;;;;;14.68;9.25;;;;;;;;;;5279488;23;20058;-93
2022/04/01 03:28:39;;;;;;;16.52;9.52;;;;;;;;;;5261533;23;20062;-95
2022/04/01 03:44:09;;;;;;;20.17;10.85;;;;;;;;;;5238032;23;20203;-94
2022/04/01 03:49:53;;;;;;;19.77;10.52;;;;;;;;;;5008354;28;20034;-95
2022/04/01 03:52:28;;;;;;;19.73;11.48;;;;;;;;;;4983686;28;20483;-93
2022/04/01 03:55:13;;;;;;;19.70;11.73;;;;;;;;;;4987186;28;20030;-94
2022/04/01 03:57:42;;;;;;;20.95;11.88;;;;;;;;;;5079784;23;20070;-95
2022/04/01 04:02:47;;;;;;;19.33;12.10;;;;;;;;;;5048863;23;20141;-94
2022/04/01 04:07:52;;;;;;;19.65;11.85;;;;;;;;;;4997988;28;20046;-93
2022/04/01 04:10:32;;;;;;;19.25;12.18;;;;;;;;;;4987595;28;20125;-94
2022/04/01 04:13:18;;;;;;;18.55;10.57;;;;;;;;;;5082861;23;20114;-95
2022/04/01 04:16:14;;;;;;;;;;;;;;;;;;;;;
2022/04/01 04:19:16;;;;;;;23.65;12.95;;;;;;;;;;5028342;28;20125;-95
2022/04/01 04:28:05;;;;;;;19.92;11.25;;;;;;;;;;5026539;28;20037;-94
2022/04/01 04:30:45;;;;;;;20.85;11.90;;;;;;;;;;5044150;23;20047;-93
2022/04/01 04:33:18;;;;;;;23.85;14.05;;;;;;;;;;4986187;28;20457;-96
2022/04/01 04:35:44;;;;;;;;;;;;;;;;;;4991157;28;20044;-93
2022/04/01 04:38:32;;;;;;;21.58;10.13;;;;;;;;;;4985922;28;19910;-93
2022/04/01 04:41:08;;;;;;;21.65;10.93;;;;;;;;;;5272655;23;20483;-93
2022/04/01 04:43:44;;;;;;;19.48;11.93;;;;;;;;;;4989887;28;20030;-94
2022/04/01 04:46:23;;;;;;;19.52;11.73;;;;;;;;;;4979786;28;20034;-95
2022/04/01 04:48:53;;;;;;;23.00;12.68;;;;;;;;;;4983036;28;20061;-92
2022/04/01 04:51:33;;;;;;;22.58;12.70;;;;;;;;;;4984185;28;20026;-91
2022/04/01 05:00:22;;;;;;;19.67;10.77;;;;;;;;;;5003266;28;20049;-92
2022/04/01 05:03:10;;;;;;;20.33;10.05;;;;;;;;;;4961119;28;20306;-94
2022/04/01 05:05:56;;;;;;;20.10;11.85;;;;;;;;;;4958981;28;20510;-93
2022/04/01 05:08:40;;;;;;;20.77;10.70;;;;;;;;;;4961443;28;20023;-92
2022/04/01 05:11:28;;;;;;;18.50;10.60;;;;;;;;;;4961170;28;20472;-90
2022/04/01 05:13:59;;;;;;;20.67;11.70;;;;;;;;;;4960490;28;20475;-94
2022/04/01 05:16:43;;;;;;;19.15;10.23;;;;;;;;;;4960577;28;20026;-92
2022/04/01 05:22:19;;;;;;;16.98;10.77;;;;;;;;;;5079239;23;20056;-95
2022/04/01 05:28:06;;;;;;;31.85;15.55;;;;;;;;;;5001992;28;20092;-92
2022/04/01 05:30:44;;;;;;;37.38;20.27;;;;;;;;;;5002889;28;20041;-93
2022/04/01 05:36:35;;;;;;;30.67;18.15;;;;;;;;;;4998030;28;20068;-93
2022/04/01 05:39:07;;;;;;;36.75;18.95;;;;;;;;;;5015267;28;20068;-95
2022/04/01 05:41:53;;;;;;;19.38;10.57;;;;;;;;;;5013134;28;20026;-95
2022/04/01 05:44:24;;;;;;;20.40;12.20;;;;;;;;;;4987300;28;20030;-93
2022/04/01 05:47:28;;;;;;;26.02;15.88;;;;;;;;;;5000893;28;20474;-94
2022/04/01 05:56:26;;;;;;;14.02;8.48;;;;;;;;;;4996992;28;20126;-93
2022/04/01 06:05:13;;;;;;;17.40;10.98;;;;;;;;;;5005906;23;20133;-90
2022/04/01 06:11:04;;;;;;;16.08;9.95;;;;;;;;;;5037948;28;20076;-92
2022/04/01 06:13:55;;;;;;;26.70;14.50;;;;;;;;;;5019498;28;20021;-93
2022/04/01 06:16:50;;;;;;;24.00;14.52;;;;;;;;;;5041657;23;20054;-92
2022/04/01 06:22:10;;;;;;;15.30;8.50;;;;;;;;;;5503970;23;19922;-95
2022/04/01 06:27:09;;;;;;;15.43;10.23;;;;;;;;;;4975402;28;20530;-94
2022/04/01 06:36:18;;;;;;;14.27;9.27;;;;;;;;;;4985194;28;20097;-93
2022/04/01 06:39:02;;;;;;;12.50;8.25;;;;;;;;;;4869906;29;20032;-94
2022/04/01 06:41:35;;;;;;;14.10;9.32;;;;;;;;;;4869616;29;20045;-92
2022/04/01 06:44:07;;;;;;;12.82;8.15;;;;;;;;;;4869042;29;20040;-91
2022/04/01 06:46:39;;;;;;;16.30;10.80;;;;;;;;;;4882124;29;20024;-92
2022/04/01 06:49:34;;;;;;;17.73;8.68;;;;;;;;;;4949131;28;20129;-93
2022/04/01 06:52:02;;;;;;;12.68;8.68;;;;;;;;;;4951071;28;20081;-93
2022/04/01 06:54:28;;;;;;;11.13;8.07;;;;;;;;;;4959472;28;20094;-92
2022/04/01 06:57:16;;;;;;;13.55;8.80;;;;;;;;;;4964011;28;20058;-93
2022/04/01 06:59:46;;;;;;;18.65;13.45;;;;;;;;;;4973060;28;20043;-94
2022/04/01 07:02:12;;;;;;;13.00;7.95;;;;;;;;;;4961095;28;20027;-93
2022/04/01 07:04:56;;;;;;;12.10;7.28;;;;;;;;;;4959660;28;20084;-94
2022/04/01 07:07:23;;;;;;;11.88;7.55;;;;;;;;;;4970625;28;20026;-92
2022/04/01 07:09:55;;;;;;;12.25;8.23;;;;;;;;;;4979895;28;20068;-95
2022/04/01 07:12:24;;;;;;;11.43;8.55;;;;;;;;;;4980229;28;20038;-90
2022/04/01 07:17:51;;;;;;;13.13;9.82;;;;;;;;;;5187006;22;20069;-93
2022/04/01 07:20:33;;;;;;;13.18;8.43;;;;;;;;;;5005671;28;20033;-91
2022/04/01 07:28:40;;;;;;;18.80;13.43;;;;;;;;;;5073306;23;20292;-91
2022/04/01 07:34:22;;;;;;;;;;;;;;;;;;;;;
2022/04/01 07:40:13;;;;;;;15.60;10.52;;;;;;;;;;5044860;28;20099;-94
2022/04/01 07:43:02;;;;;;;17.45;13.48;;;;;;;;;;4939926;29;20035;-94
2022/04/01 07:45:39;;;;;;;;;;;;;;;;;;;;;
2022/04/01 07:48:08;;;;;;;11.88;8.90;;;;;;;;;;5037993;28;20530;-93
2022/04/01 07:50:49;;;;;;;14.93;10.02;;;;;;;;;;5020098;28;20033;-92
2022/04/01 07:53:21;;;;;;;11.55;8.07;;;;;;;;;;5018834;28;20477;-91
2022/04/01 07:56:05;;;;;;;14.88;10.23;;;;;;;;;;5017910;28;20031;-91
2022/04/01 08:01:39;;;;;;;20.73;16.73;;;;;;;;;;4973531;28;20057;-89
2022/04/01 08:10:30;;;;;;;14.77;10.55;;;;;;;;;;4917481;29;20072;-90
2022/04/01 08:19:28;;;;;;;22.40;18.83;;;;;;;;;;4862709;29;20052;-90
2022/04/01 08:22:18;;;;;;;14.80;9.00;;;;;;;;;;4916404;29;20040;-91
2022/04/01 08:47:19;;;;;;;12.07;8.50;;;;;;;;;;5231928;22;20113;-93
2022/04/01 08:50:11;;;;;;;14.00;7.32;;;;;;;;;;4984402;28;20500;-91
2022/04/01 08:52:43;;;;;;;11.77;8.02;;;;;;;;;;4971085;28;20034;-91
2022/04/01 08:55:26;;;;;;;;;;;;;;;;;;;;;
2022/04/01 08:58:01;;;;;;;12.23;8.30;;;;;;;;;;5002327;28;20137;-92
2022/04/01 09:00:36;;;;;;;11.85;7.50;;;;;;;;;;4995296;28;20034;-89
2022/04/01 09:06:30;;;;;;;13.93;7.07;;;;;;;;;;5007450;28;20048;-90
2022/04/01 09:12:22;;;;;;;11.63;7.72;;;;;;;;;;5145073;23;20089;-92
2022/04/01 09:21:23;;;;;;;10.23;7.00;;;;;;;;;;4972948;28;20046;-90
2022/04/01 09:27:13;;;;;;;13.95;6.47;;;;;;;;;;4966716;28;20092;-91
2022/04/01 09:29:42;;;;;;;10.57;6.15;;;;;;;;;;4960703;28;20543;-93
2022/04/01 09:32:40;;;;;;;10.93;6.93;;;;;;;;;;4960520;28;20034;-92
2022/04/01 09:38:09;;;;;;;9.82;5.55;;;;;;;;;;4980071;28;20058;-92
2022/04/01 09:40:48;;;;;;;9.82;6.85;;;;;;;;;;4996104;23;20101;-94
2022/04/01 09:43:29;;;;;;;10.48;7.18;;;;;;;;;;4980366;28;20034;-92
2022/04/01 09:46:14;;;;;;;12.32;6.53;;;;;;;;;;4979551;28;20050;-90
2022/04/01 09:48:46;;;;;;;10.15;6.55;;;;;;;;;;4974440;28;20090;-91
2022/04/01 10:02:30;;;;;;;13.63;7.35;;;;;;;;;;5008960;28;20025;-91
2022/04/01 10:51:42;;;;;;;8.85;5.25;;;;;;;;;;5455590;23;20263;-93
2022/04/01 11:18:51;;;;;;;11.20;7.90;;;;;;;;;;4881036;29;20588;-95
2022/04/01 11:21:36;;;;;;;11.88;8.63;;;;;;;;;;4878935;29;20045;-94
2022/04/01 11:24:26;;;;;;;11.95;8.30;;;;;;;;;;4948653;29;20112;-95
2022/04/01 11:27:04;;;;;;;13.07;8.80;;;;;;;;;;4944705;29;20050;-93
2022/04/01 11:29:39;;;;;;;13.68;9.13;;;;;;;;;;4940811;29;20554;-95
2022/04/01 11:32:32;;;;;;;13.40;9.35;;;;;;;;;;4951920;28;20046;-95
2022/04/01 11:35:12;;;;;;;14.13;9.48;;;;;;;;;;5020681;28;20124;-93
2022/04/01 11:37:49;;;;;;;14.90;9.75;;;;;;;;;;5035145;28;20048;-94
2022/04/01 11:40:53;;;;;;;11.60;8.73;;;;;;;;;;5028475;28;20037;-95
2022/04/01 11:43:24;;;;;;;12.05;8.52;;;;;;;;;;4995935;28;20033;-94
2022/04/01 11:46:22;;;;;;;12.52;8.60;;;;;;;;;;5019345;28;20036;-96
2022/04/01 11:48:54;;;;;;;10.90;7.90;;;;;;;;;;4955680;29;20055;-95
2022/04/01 11:51:32;;;;;;;12.55;8.18;;;;;;;;;;5018410;28;20025;-95
2022/04/01 11:54:02;;;;;;;11.75;8.20;;;;;;;;;;5019416;28;20021;-94
2022/04/01 11:56:44;;;;;;;10.68;7.15;;;;;;;;;;5024971;28;20029;-94
2022/04/01 11:59:19;;;;;;;10.00;5.90;;;;;;;;;;5037328;28;20044;-94
2022/04/01 12:01:55;;;;;;;13.70;9.27;;;;;;;;;;5015500;28;20491;-95
2022/04/01 12:04:32;;;;;;;14.63;9.45;;;;;;;;;;4995382;28;20045;-95
2022/04/01 12:09:51;;;;;;;12.40;8.25;;;;;;;;;;4997242;28;20569;-95
2022/04/01 12:12:43;;;;;;;13.60;8.55;;;;;;;;;;4996279;28;20505;-95
2022/04/01 12:15:12;;;;;;;15.35;9.20;;;;;;;;;;4993916;28;20022;-95
2022/04/01 12:18:00;;;;;;;24.98;11.20;;;;;;;;;;4997081;28;20038;-96
2022/04/01 12:20:31;;;;;;;15.00;9.25;;;;;;;;;;4996496;28;20034;-95
2022/04/01 12:23:01;;;;;;;18.77;9.98;;;;;;;;;;4997670;28;20070;-94
2022/04/01 12:25:37;;;;;;;17.90;9.93;;;;;;;;;;5001160;28;20022;-95
2022/04/01 12:28:08;;;;;;;16.23;9.45;;;;;;;;;;5003670;28;20022;-94
2022/04/01 12:30:49;;;;;;;14.65;8.43;;;;;;;;;;5003361;28;20041;-95
2022/04/01 12:33:41;;;;;;;21.42;9.93;;;;;;;;;;5005609;28;20030;-94
2022/04/01 12:36:18;;;;;;;17.42;9.25;;;;;;;;;;5078266;23;20126;-96
2022/04/01 12:39:10;;;;;;;15.00;9.20;;;;;;;;;;4984773;28;20031;-96
2022/04/01 12:44:51;;;;;;;14.15;9.45;;;;;;;;;;4940018;29;20074;-95
2022/04/01 12:50:34;;;;;;;14.75;9.73;;;;;;;;;;4974455;28;20399;-95
2022/04/01 12:53:23;;;;;;;13.93;9.70;;;;;;;;;;4963528;28;20058;-94
2022/04/01 12:56:17;;;;;;;15.55;10.38;;;;;;;;;;4962231;28;20478;-95
2022/04/01 12:59:06;;;;;;;;;;;;;;;;;;;;;
2022/04/01 13:01:37;;;;;;;14.88;9.82;;;;;;;;;;4987332;28;20110;-92
2022/04/01 13:04:10;;;;;;;14.50;9.38;;;;;;;;;;4967177;28;20031;-93
2022/04/01 13:06:57;;;;;;;20.17;10.20;;;;;;;;;;4969419;28;20031;-93
2022/04/01 13:09:52;;;;;;;14.38;9.52;;;;;;;;;;4975508;28;20030;-94
2022/04/01 13:12:53;;;;;;;;;;;;;;;;;;;;;
2022/04/01 13:15:38;;;;;;;14.80;9.15;;;;;;;;;;4939791;29;20126;-93
2022/04/01 13:18:27;;;;;;;13.40;9.70;;;;;;;;;;4923584;29;20039;-93
2022/04/01 13:21:05;;;;;;;15.15;9.90;;;;;;;;;;4939384;29;20044;-95
2022/04/01 13:23:38;;;;;;;17.33;11.63;;;;;;;;;;4924033;29;20039;-94
2022/04/01 13:26:24;;;;;;;15.80;10.48;;;;;;;;;;4923174;29;20055;-95
2022/04/01 13:28:59;;;;;;;16.00;10.88;;;;;;;;;;4922248;29;20040;-95
2022/04/01 13:31:32;;;;;;;16.58;10.98;;;;;;;;;;4926197;29;20027;-94
2022/04/01 13:34:04;;;;;;;18.00;11.82;;;;;;;;;;4934163;29;20036;-95
2022/04/01 13:39:13;;;;;;;16.55;10.60;;;;;;;;;;5148019;23;20076;-95
2022/04/01 13:41:39;;;;;;;17.27;11.83;;;;;;;;;;5020671;28;20029;-95
2022/04/01 13:44:14;;;;;;;15.65;11.18;;;;;;;;;;5021795;28;20482;-93
2022/04/01 13:46:47;;;;;;;14.93;10.93;;;;;;;;;;5020787;28;20033;-95
2022/04/01 13:49:16;;;;;;;17.17;10.85;;;;;;;;;;5016564;28;20043;-96
2022/04/01 13:51:48;;;;;;;15.60;11.05;;;;;;;;;;5020856;28;20041;-93
2022/04/01 13:54:14;;;;;;;13.98;10.25;;;;;;;;;;5019301;28;20474;-95
2022/04/01 13:56:41;;;;;;;15.98;10.88;;;;;;;;;;5019968;28;20116;-95
2022/04/01 13:59:29;;;;;;;18.70;11.52;;;;;;;;;;5020066;28;20030;-94
2022/04/01 14:04:59;;;;;;;14.05;10.38;;;;;;;;;;4998569;28;20033;-95
2022/04/01 14:07:40;;;;;;;18.00;11.63;;;;;;;;;;4981331;28;20080;-95
2022/04/01 14:10:25;;;;;;;15.30;10.98;;;;;;;;;;4980168;28;20033;-96
2022/04/01 14:12:51;;;;;;;17.15;11.23;;;;;;;;;;4976189;28;20037;-96
2022/04/01 14:15:26;;;;;;;18.02;12.10;;;;;;;;;;4980668;28;20034;-96
2022/04/01 14:17:58;;;;;;;16.92;11.07;;;;;;;;;;4981745;28;20042;-95
2022/04/01 14:20:28;;;;;;;19.00;12.77;;;;;;;;;;5019328;23;20062;-96
2022/04/01 14:22:58;;;;;;;17.50;12.38;;;;;;;;;;4996936;28;20041;-95
2022/04/01 14:28:06;;;;;;;18.42;12.88;;;;;;;;;;5047537;23;20050;-95
2022/04/01 14:30:35;;;;;;;21.50;12.10;;;;;;;;;;5001972;28;20034;-95
2022/04/01 14:33:19;;;;;;;19.65;12.63;;;;;;;;;;5000919;28;20495;-95
2022/04/01 14:35:54;;;;;;;18.40;12.13;;;;;;;;;;5003290;28;20069;-91
2022/04/01 14:38:24;;;;;;;16.30;11.57;;;;;;;;;;5004199;28;20030;-95
2022/04/01 14:40:57;;;;;;;18.42;12.00;;;;;;;;;;5004713;28;20124;-96
2022/04/01 14:43:53;;;;;;;17.33;12.25;;;;;;;;;;4981697;28;20038;-95
2022/04/01 14:46:22;;;;;;;20.60;12.05;;;;;;;;;;5088780;23;20051;-94
2022/04/01 14:48:49;;;;;;;17.02;12.65;;;;;;;;;;4981579;28;20043;-94
2022/04/01 14:51:19;;;;;;;18.20;13.55;;;;;;;;;;4984330;28;20031;-92
2022/04/01 15:15:47;;;;;;;21.98;13.52;;;;;;;;;;5101959;23;20054;-95
2022/04/01 15:18:42;;;;;;;24.20;15.75;;;;;;;;;;4982173;28;20022;-93
2022/04/01 15:56:17;;;;;;;23.20;12.90;;;;;;;;;;4944261;28;20543;-95
2022/04/01 15:59:44;;;;;;;;;;;;;;;;;;;;;
2022/04/01 16:05:45;;;;;;;23.65;13.10;;;;;;;;;;4907205;29;20047;-94
2022/04/01 16:08:28;;;;;;;25.15;14.02;;;;;;;;;;4887724;29;20089;-96
2022/04/01 16:13:47;;;;;;;23.83;13.32;;;;;;;;;;5094507;23;20053;-93
2022/04/01 16:16:32;;;;;;;29.83;15.30;;;;;;;;;;5004035;28;20025;-94
2022/04/01 16:19:01;;;;;;;24.50;14.20;;;;;;;;;;5003144;28;20026;-93
2022/04/01 16:21:46;;;;;;;27.45;13.80;;;;;;;;;;5006170;28;20032;-94
2022/04/01 16:27:00;;;;;;;25.15;15.13;;;;;;;;;;5364939;23;20143;-93
2022/04/01 16:29:29;;;;;;;26.02;14.45;;;;;;;;;;5025484;28;20028;-94
2022/04/01 16:32:06;;;;;;;;;;;;;;;;;;;;;
2022/04/01 16:34:45;;;;;;;25.70;14.65;;;;;;;;;;5040825;28;20108;-93
2022/04/01 16:37:30;;;;;;;28.45;14.20;;;;;;;;;;5026322;28;20041;-93
2022/04/01 16:51:58;;;;;;;31.42;14.85;;;;;;;;;;5065853;23;20394;-92
2022/04/01 17:34:21;;;;;;;27.08;14.68;;;;;;;;;;5968061;23;21169;-94
2022/04/01 17:53:56;;;;;;;33.92;14.48;;;;;;;;;;5038622;23;20050;-93
2022/04/01 17:56:52;;;;;;;29.85;15.30;;;;;;;;;;5039260;23;20054;-92
2022/04/01 17:59:27;;;;;;;33.60;15.07;;;;;;;;;;4980501;28;20479;-94
2022/04/01 18:02:27;;;;;;;33.00;14.95;;;;;;;;;;4983419;28;20098;-94
2022/04/01 18:08:09;;;;;;;31.92;15.52;;;;;;;;;;5047302;23;20153;-95
2022/04/01 18:31:48;;;;;;;;;;;;;;;;;;;;;
2022/04/01 18:46:17;;;;;;;32.45;14.25;;;;;;;;;;5019194;28;20033;-93
2022/04/01 18:48:47;;;;;;;29.30;14.73;;;;;;;;;;5001343;28;20022;-93
2022/04/01 18:54:15;;;;;;;27.50;13.55;;;;;;;;;;5003952;28;20061;-92
2022/04/01 18:56:55;;;;;;;26.05;13.57;;;;;;;;;;4983465;28;20116;-90
2022/04/01 18:59:25;;;;;;;28.33;13.65;;;;;;;;;;4957766;28;20075;-94
2022/04/01 19:02:07;;;;;;;32.05;15.38;;;;;;;;;;4958022;28;20034;-93
2022/04/01 19:12:25;;;;;;;29.83;13.48;;;;;;;;;;5034805;28;20057;-91
2022/04/01 19:21:17;;;;;;;30.43;14.07;;;;;;;;;;5311909;23;20080;-92
2022/04/01 19:26:35;;;;;;;30.15;15.27;;;;;;;;;;4997060;28;20049;-92
2022/04/01 19:37:44;;;;;;;32.58;15.63;;;;;;;;;;5423936;23;20057;-92
2022/04/01 19:40:20;;;;;;;32.63;15.27;;;;;;;;;;5020220;28;20037;-95
2022/04/01 19:46:12;;;;;;;27.98;13.77;;;;;;;;;;5017334;28;20117;-91
2022/04/01 19:48:44;;;;;;;31.52;14.15;;;;;;;;;;5018816;28;20032;-93
2022/04/01 19:51:26;;;;;;;33.15;15.68;;;;;;;;;;5018361;28;20396;-93
2022/04/01 19:53:53;;;;;;;42.35;17.70;;;;;;;;;;5018400;28;20017;-94
2022/04/01 19:56:23;;;;;;;44.40;16.63;;;;;;;;;;5017376;28;20124;-95
2022/04/01 19:58:53;;;;;;;39.17;16.55;;;;;;;;;;5017494;28;20084;-94
2022/04/01 20:01:30;;;;;;;29.25;14.55;;;;;;;;;;5017097;28;20033;-94
2022/04/01 20:04:03;;;;;;;28.13;14.38;;;;;;;;;;5012313;28;20064;-92
2022/04/01 20:06:30;;;;;;;25.07;12.83;;;;;;;;;;5016706;28;20025;-94
2022/04/01 20:09:11;;;;;;;26.70;13.55;;;;;;;;;;5016442;28;20144;-94
2022/04/01 20:11:43;;;;;;;29.42;12.50;;;;;;;;;;5019782;28;20025;-94
2022/04/01 20:14:10;;;;;;;27.80;13.27;;;;;;;;;;5020716;28;20025;-94
2022/04/01 20:16:42;;;;;;;28.60;13.40;;;;;;;;;;5019551;28;20037;-95
2022/04/01 20:19:13;;;;;;;27.58;13.57;;;;;;;;;;5022024;28;20089;-92
2022/04/01 20:21:53;;;;;;;26.67;13.00;;;;;;;;;;5019640;28;20037;-91
2022/04/01 20:24:23;;;;;;;27.33;13.52;;;;;;;;;;4999085;28;20398;-93
2022/04/01 20:27:09;;;;;;;26.45;13.85;;;;;;;;;;4957112;29;20042;-95
2022/04/01 20:29:46;;;;;;;27.98;12.95;;;;;;;;;;4955604;29;20136;-93
2022/04/01 20:32:18;;;;;;;26.42;12.93;;;;;;;;;;4955287;29;20027;-96
2022/04/01 20:35:11;;;;;;;28.02;13.18;;;;;;;;;;4954765;29;20086;-92
2022/04/01 20:37:37;;;;;;;33.63;14.95;;;;;;;;;;4931237;29;20039;-92
2022/04/01 20:40:21;;;;;;;25.50;12.70;;;;;;;;;;4952715;29;20039;-93
2022/04/01 20:43:19;;;;;;;26.15;13.70;;;;;;;;;;4944525;28;20138;-91
2022/04/01 20:45:49;;;;;;;25.02;11.75;;;;;;;;;;4965378;23;20517;-95
2022/04/01 20:48:18;;;;;;;27.55;13.15;;;;;;;;;;4980148;28;20033;-93
2022/04/01 20:51:09;;;;;;;24.80;12.20;;;;;;;;;;4980995;28;20037;-91
2022/04/01 20:53:46;;;;;;;25.40;12.23;;;;;;;;;;4945105;28;20082;-95
2022/04/01 20:56:19;;;;;;;25.48;11.93;;;;;;;;;;4979438;28;20027;-93
2022/04/01 20:58:48;;;;;;;25.33;11.82;;;;;;;;;;4979776;28;20042;-92
2022/04/01 21:01:32;;;;;;;23.83;12.43;;;;;;;;;;4979390;28;20113;-92
2022/04/01 21:04:01;;;;;;;20.02;9.95;;;;;;;;;;4977744;28;20067;-93
2022/04/01 21:06:31;;;;;;;27.35;12.75;;;;;;;;;;4978879;28;20038;-92
2022/04/01 21:09:25;;;;;;;25.98;12.57;;;;;;;;;;4982803;28;20114;-93
2022/04/01 21:11:57;;;;;;;25.30;11.02;;;;;;;;;;4978898;28;20037;-92
2022/04/01 21:14:27;;;;;;;21.25;10.35;;;;;;;;;;4961026;28;20512;-94
2022/04/01 21:17:05;;;;;;;23.88;11.48;;;;;;;;;;4979772;28;20019;-93
2022/04/01 21:22:54;;;;;;;;;;;;;;;;;;;;;
2022/04/01 21:28:24;;;;;;;19.77;10.07;;;;;;;;;;4938027;29;20071;-94
2022/04/01 21:30:53;;;;;;;18.92;9.63;;;;;;;;;;4929861;29;20039;-92
2022/04/01 21:33:25;;;;;;;21.67;11.35;;;;;;;;;;4922232;29;20118;-92
2022/04/01 21:36:05;;;;;;;18.73;9.90;;;;;;;;;;4921274;29;20059;-92
2022/04/01 21:38:34;;;;;;;20.40;10.18;;;;;;;;;;4921696;29;20043;-94
2022/04/01 21:41:01;;;;;;;23.08;10.70;;;;;;;;;;4922410;29;20040;-92
2022/04/01 21:43:42;;;;;;;21.13;11.13;;;;;;;;;;4922751;29;20130;-96
2022/04/01 21:49:41;;;;;;;21.35;9.52;;;;;;;;;;4872555;29;20044;-91
2022/04/01 21:52:16;;;;;;;23.27;10.30;;;;;;;;;;4894897;29;20043;-93
2022/04/01 21:54:54;;;;;;;22.65;11.32;;;;;;;;;;4923046;29;20048;-93
2022/04/01 21:57:32;;;;;;;20.88;10.48;;;;;;;;;;4921960;29;20040;-92
2022/04/01 22:00:01;;;;;;;25.15;10.30;;;;;;;;;;4921981;29;20043;-93
2022/04/01 22:02:39;;;;;;;23.08;11.10;;;;;;;;;;4921537;29;20087;-91
2022/04/01 22:05:14;;;;;;;23.08;11.27;;;;;;;;;;4922224;29;20027;-92
2022/04/01 22:07:44;;;;;;;23.83;10.70;;;;;;;;;;4921662;29;20027;-92
2022/04/01 22:10:16;;;;;;;23.52;10.88;;;;;;;;;;4921851;29;20381;-92
2022/04/01 22:12:48;;;;;;;20.42;10.90;;;;;;;;;;4966059;28;20049;-92
2022/04/01 22:15:31;;;;;;;22.65;10.95;;;;;;;;;;5004356;28;20030;-92
2022/04/01 22:18:04;;;;;;;19.98;10.98;;;;;;;;;;5008494;28;20034;-93
2022/04/01 22:20:35;;;;;;;21.52;10.60;;;;;;;;;;5005359;28;20038;-93
2022/04/01 22:23:11;;;;;;;23.50;12.25;;;;;;;;;;4995889;28;20050;-93
2022/04/01 22:25:40;;;;;;;22.38;10.88;;;;;;;;;;4997962;28;20119;-93
2022/04/01 22:31:05;;;;;;;22.50;12.15;;;;;;;;;;5078760;23;20034;-94
2022/04/01 22:33:58;;;;;;;20.95;11.15;;;;;;;;;;5019957;28;20018;-90
2022/04/01 22:36:30;;;;;;;20.25;10.02;;;;;;;;;;5036673;28;20106;-94
2022/04/01 22:39:03;;;;;;;21.70;11.48;;;;;;;;;;5019611;28;20056;-96
2022/04/01 22:41:35;;;;;;;23.20;12.07;;;;;;;;;;5000420;28;20047;-94
2022/04/01 22:49:32;;;;;;;23.88;11.32;;;;;;;;;;5208814;23;20057;-91
2022/04/01 22:52:24;;;;;;;25.38;12.05;;;;;;;;;;5039752;28;20046;-93
2022/04/01 22:57:29;;;;;;;27.38;13.38;;;;;;;;;;5633641;23;20033;-92
2022/04/01 22:59:59;;;;;;;23.30;12.18;;;;;;;;;;5009375;28;20109;-92
2022/04/01 23:02:41;;;;;;;20.52;11.35;;;;;;;;;;5005728;28;20084;-93
2022/04/01 23:05:14;;;;;;;23.90;10.98;;;;;;;;;;5004660;28;20478;-91
2022/04/01 23:07:59;;;;;;;26.48;11.68;;;;;;;;;;5005933;28;20116;-92
2022/04/01 23:10:37;;;;;;;21.48;11.25;;;;;;;;;;5002810;28;20125;-93
2022/04/01 23:13:20;;;;;;;24.08;12.18;;;;;;;;;;5003498;28;20030;-91
2022/04/01 23:16:24;;;;;;;24.08;10.80;;;;;;;;;;5003268;28;20026;-92
2022/04/01 23:19:03;;;;;;;22.92;11.13;;;;;;;;;;4926431;29;20028;-93
2022/04/01 23:21:33;;;;;;;22.27;11.23;;;;;;;;;;4999449;28;20130;-90
2022/04/01 23:24:05;;;;;;;22.85;11.00;;;;;;;;;;5000080;28;20030;-94
2022/04/01 23:26:37;;;;;;;22.25;11.18;;;;;;;;;;5002397;28;20030;-94
2022/04/01 23:29:19;;;;;;;24.98;11.90;;;;;;;;;;4996669;28;20038;-96
2022/04/01 23:31:51;;;;;;;23.00;10.68;;;;;;;;;;5004270;28;20030;-92
2022/04/01 23:34:21;;;;;;;20.17;10.93;;;;;;;;;;4998053;28;20505;-93
2022/04/01 23:39:43;;;;;;;20.30;10.60;;;;;;;;;;4956509;29;20031;-94
2022/04/01 23:42:28;;;;;;;24.48;11.23;;;;;;;;;;4990209;28;20034;-92
2022/04/01 23:45:22;;;;;;;25.63;10.80;;;;;;;;;;4996647;28;20042;-94
2022/04/01 23:47:49;;;;;;;19.48;10.43;;;;;;;;;;4997445;28;20103;-93
2022/04/01 23:50:24;;;;;;;25.65;11.43;;;;;;;;;;4973236;28;20039;-93
2022/04/01 23:52:59;;;;;;;24.85;10.48;;;;;;;;;;4958176;28;20511;-93
2022/04/01 23:55:31;;;;;;;20.67;9.88;;;;;;;;;;4957740;28;20057;-92
2022/04/01 23:58:21;;;;;;;21.77;11.40;;;;;;;;;;4957143;28;20051;-91
